Nur fliegen ist schöner ....

Willkommen beim Flugservice Bautzen GmbH

Wir sind eine nach europäischen Richtlinien zugelassene Flugschule und lizenziertes Luftfahrtunternehmen. Bei uns können sie nicht nur Rundflüge über die Oberlausitz oder Sachsen buchen, sondern in unserer Flugschule selber das Fliegen erlernen. Erfahrene Fluglehrer stehen ihnen dabei zur Seite.

Wir bieten Ihnen außerdem spezielle Flüge zur Vermessung oder Fotoflüge für Luftbildaufnahmen an. In Zusammenarbeit mit dem Fallschirmsportclub Dresden und dem Cottbuser Fallschirmsportclub setzen wir am Flugplatz Bautzen und Neuhausen Fallschirmspringer ab.
Schauen sie sich in Ruhe bei uns um und wenn sie Fragen haben oder weitere Informationen benötigen, scheuen sie sich nicht Kontakt mit uns aufzunehmen.

Rundflüge können sie ganz leicht auch online in unserem Shop buchen.

Terminkalender

Letzter Monat August 2018 Nächster Monat
Mo Di Mi Do Fr Sa So
week 31 1 2 3 4 5
week 32 6 7 8 9 10 11 12
week 33 13 14 15 16 17 18 19
week 34 20 21 22 23 24 25 26
week 35 27 28 29 30 31

Flugwetterinfo

[Quelle: ADDS]
METAR
EDDC 180620Z 34003KT 310V020 9999 FEW012 BKN021 BKN170 18/16 Q1021 NOSIG =
TAF
EDDC 180500Z 1806/1906 34004KT 9999 SCT030 PROB30 TEMPO 1812/1818 36015G25KT TSRA BKN020CB =
SR / SS: 03:53 / 18:17 UTC (EDAB Flugplatz Bautzen 2018-08-18)

Webcam EDAB

Webcam EDAB
Flugservice Bautzen GmbH, Kornmarkt 34, 02625 Bautzen  Telefon: +49 (3591) 211105, Telefax: +49 (3591) 274512, E-Mail:  flugservice(at)fsbautzen.de